sensor_id;sensor_type;location;lat;lon;timestamp;P1;durP1;ratioP1;P2;durP2;ratioP2
72373;SDS011;60349;64.132;-21.820;2023-03-11T00:00:35;18.40;;;13.13;;
72373;SDS011;60349;64.132;-21.820;2023-03-11T00:03:02;18.08;;;12.80;;
72373;SDS011;60349;64.132;-21.820;2023-03-11T00:05:30;16.63;;;12.45;;
72373;SDS011;60349;64.132;-21.820;2023-03-11T00:07:56;15.38;;;11.00;;
72373;SDS011;60349;64.132;-21.820;2023-03-11T00:10:38;15.43;;;11.38;;
72373;SDS011;60349;64.132;-21.820;2023-03-11T00:13:05;13.15;;;10.35;;
72373;SDS011;60349;64.132;-21.820;2023-03-11T00:15:34;15.85;;;10.20;;
72373;SDS011;60349;64.132;-21.820;2023-03-11T00:18:00;13.63;;;10.30;;
72373;SDS011;60349;64.132;-21.820;2023-03-11T00:20:28;15.38;;;10.27;;
72373;SDS011;60349;64.132;-21.820;2023-03-11T00:22:54;13.10;;;10.13;;
72373;SDS011;60349;64.132;-21.820;2023-03-11T00:25:21;18.45;;;10.43;;
72373;SDS011;60349;64.132;-21.820;2023-03-11T00:27:47;17.48;;;9.45;;
72373;SDS011;60349;64.132;-21.820;2023-03-11T00:30:14;12.93;;;8.57;;
72373;SDS011;60349;64.132;-21.820;2023-03-11T00:32:41;12.38;;;8.63;;
72373;SDS011;60349;64.132;-21.820;2023-03-11T00:35:07;10.35;;;8.00;;
72373;SDS011;60349;64.132;-21.820;2023-03-11T00:37:33;9.45;;;7.53;;
72373;SDS011;60349;64.132;-21.820;2023-03-11T00:40:00;10.15;;;7.70;;
72373;SDS011;60349;64.132;-21.820;2023-03-11T00:42:26;9.70;;;7.78;;
72373;SDS011;60349;64.132;-21.820;2023-03-11T00:44:52;9.02;;;6.63;;
72373;SDS011;60349;64.132;-21.820;2023-03-11T00:47:18;9.48;;;6.47;;
72373;SDS011;60349;64.132;-21.820;2023-03-11T00:49:44;10.70;;;6.38;;
72373;SDS011;60349;64.132;-21.820;2023-03-11T00:52:11;6.60;;;5.55;;
72373;SDS011;60349;64.132;-21.820;2023-03-11T00:54:37;11.10;;;6.25;;
72373;SDS011;60349;64.132;-21.820;2023-03-11T00:57:03;6.05;;;5.45;;
72373;SDS011;60349;64.132;-21.820;2023-03-11T00:59:29;6.18;;;4.85;;
72373;SDS011;60349;64.132;-21.820;2023-03-11T01:01:55;6.05;;;5.22;;
72373;SDS011;60349;64.132;-21.820;2023-03-11T01:04:21;6.93;;;5.28;;
72373;SDS011;60349;64.132;-21.820;2023-03-11T01:06:47;6.18;;;5.07;;
72373;SDS011;60349;64.132;-21.820;2023-03-11T01:09:13;6.57;;;4.53;;
72373;SDS011;60349;64.132;-21.820;2023-03-11T01:11:39;12.73;;;5.22;;
72373;SDS011;60349;64.132;-21.820;2023-03-11T01:14:05;10.20;;;4.45;;
72373;SDS011;60349;64.132;-21.820;2023-03-11T01:16:32;13.85;;;9.27;;
72373;SDS011;60349;64.132;-21.820;2023-03-11T01:18:58;9.38;;;7.40;;
72373;SDS011;60349;64.132;-21.820;2023-03-11T01:21:24;12.77;;;8.15;;
72373;SDS011;60349;64.132;-21.820;2023-03-11T01:23:50;11.25;;;7.03;;
72373;SDS011;60349;64.132;-21.820;2023-03-11T01:26:16;13.40;;;7.60;;
72373;SDS011;60349;64.132;-21.820;2023-03-11T01:28:42;13.23;;;8.60;;
72373;SDS011;60349;64.132;-21.820;2023-03-11T01:31:09;10.23;;;7.07;;
72373;SDS011;60349;64.132;-21.820;2023-03-11T01:33:35;10.30;;;6.97;;
72373;SDS011;60349;64.132;-21.820;2023-03-11T01:36:01;9.68;;;7.53;;
72373;SDS011;60349;64.132;-21.820;2023-03-11T01:38:27;9.55;;;6.88;;
72373;SDS011;60349;64.132;-21.820;2023-03-11T01:40:54;9.68;;;6.55;;
72373;SDS011;60349;64.132;-21.820;2023-03-11T01:46:13;16.70;;;10.27;;
72373;SDS011;60349;64.132;-21.820;2023-03-11T01:48:40;15.50;;;8.77;;
72373;SDS011;60349;64.132;-21.820;2023-03-11T01:51:09;13.65;;;8.63;;
72373;SDS011;60349;64.132;-21.820;2023-03-11T01:53:35;12.65;;;7.80;;
72373;SDS011;60349;64.132;-21.820;2023-03-11T01:56:02;14.75;;;9.55;;
72373;SDS011;60349;64.132;-21.820;2023-03-11T01:58:31;13.65;;;8.93;;
72373;SDS011;60349;64.132;-21.820;2023-03-11T02:00:58;13.18;;;8.13;;
72373;SDS011;60349;64.132;-21.820;2023-03-11T02:03:26;13.02;;;9.52;;
72373;SDS011;60349;64.132;-21.820;2023-03-11T02:05:55;11.85;;;8.88;;
72373;SDS011;60349;64.132;-21.820;2023-03-11T02:08:22;10.50;;;7.57;;
72373;SDS011;60349;64.132;-21.820;2023-03-11T02:10:48;9.75;;;8.23;;
72373;SDS011;60349;64.132;-21.820;2023-03-11T02:13:15;10.68;;;7.97;;
72373;SDS011;60349;64.132;-21.820;2023-03-11T02:15:41;9.20;;;7.57;;
72373;SDS011;60349;64.132;-21.820;2023-03-11T02:18:07;10.27;;;8.75;;
72373;SDS011;60349;64.132;-21.820;2023-03-11T02:20:43;10.68;;;8.75;;
72373;SDS011;60349;64.132;-21.820;2023-03-11T02:23:13;8.95;;;8.05;;
72373;SDS011;60349;64.132;-21.820;2023-03-11T02:28:14;9.65;;;7.82;;
72373;SDS011;60349;64.132;-21.820;2023-03-11T02:30:42;8.98;;;7.75;;
72373;SDS011;60349;64.132;-21.820;2023-03-11T02:33:09;10.32;;;7.80;;
72373;SDS011;60349;64.132;-21.820;2023-03-11T02:35:35;10.20;;;7.40;;
72373;SDS011;60349;64.132;-21.820;2023-03-11T02:38:02;9.43;;;7.80;;
72373;SDS011;60349;64.132;-21.820;2023-03-11T02:40:35;7.65;;;6.57;;
72373;SDS011;60349;64.132;-21.820;2023-03-11T02:45:28;7.22;;;6.50;;
72373;SDS011;60349;64.132;-21.820;2023-03-11T02:47:55;7.70;;;5.50;;
72373;SDS011;60349;64.132;-21.820;2023-03-11T02:50:22;6.53;;;5.38;;
72373;SDS011;60349;64.132;-21.820;2023-03-11T02:52:49;6.45;;;5.32;;
72373;SDS011;60349;64.132;-21.820;2023-03-11T02:55:16;6.20;;;5.28;;
72373;SDS011;60349;64.132;-21.820;2023-03-11T02:57:45;6.50;;;5.45;;
72373;SDS011;60349;64.132;-21.820;2023-03-11T03:00:12;6.07;;;5.47;;
72373;SDS011;60349;64.132;-21.820;2023-03-11T03:02:40;6.65;;;5.60;;
72373;SDS011;60349;64.132;-21.820;2023-03-11T03:05:07;6.78;;;6.07;;
72373;SDS011;60349;64.132;-21.820;2023-03-11T03:07:34;6.03;;;5.43;;
72373;SDS011;60349;64.132;-21.820;2023-03-11T03:10:00;6.65;;;6.03;;
72373;SDS011;60349;64.132;-21.820;2023-03-11T03:12:26;6.05;;;5.45;;
72373;SDS011;60349;64.132;-21.820;2023-03-11T03:14:52;7.10;;;5.80;;
72373;SDS011;60349;64.132;-21.820;2023-03-11T03:17:18;6.57;;;5.93;;
72373;SDS011;60349;64.132;-21.820;2023-03-11T03:19:45;6.57;;;5.97;;
72373;SDS011;60349;64.132;-21.820;2023-03-11T03:22:11;7.40;;;6.70;;
72373;SDS011;60349;64.132;-21.820;2023-03-11T03:24:37;7.32;;;6.60;;
72373;SDS011;60349;64.132;-21.820;2023-03-11T03:27:03;6.85;;;6.15;;
72373;SDS011;60349;64.132;-21.820;2023-03-11T03:29:29;6.28;;;5.68;;
72373;SDS011;60349;64.132;-21.820;2023-03-11T03:31:55;7.75;;;7.07;;
72373;SDS011;60349;64.132;-21.820;2023-03-11T03:34:22;6.80;;;6.10;;
72373;SDS011;60349;64.132;-21.820;2023-03-11T03:36:48;6.47;;;5.78;;
72373;SDS011;60349;64.132;-21.820;2023-03-11T03:39:14;6.32;;;5.78;;
72373;SDS011;60349;64.132;-21.820;2023-03-11T03:41:42;6.78;;;5.85;;
72373;SDS011;60349;64.132;-21.820;2023-03-11T03:44:08;4.80;;;4.40;;
72373;SDS011;60349;64.132;-21.820;2023-03-11T03:46:34;4.70;;;4.30;;
72373;SDS011;60349;64.132;-21.820;2023-03-11T03:49:02;5.40;;;4.90;;
72373;SDS011;60349;64.132;-21.820;2023-03-11T03:51:28;5.38;;;4.50;;
72373;SDS011;60349;64.132;-21.820;2023-03-11T03:53:54;5.45;;;4.63;;
72373;SDS011;60349;64.132;-21.820;2023-03-11T03:56:20;6.55;;;5.35;;
72373;SDS011;60349;64.132;-21.820;2023-03-11T03:58:46;6.07;;;4.85;;
72373;SDS011;60349;64.132;-21.820;2023-03-11T04:01:13;6.00;;;5.22;;
72373;SDS011;60349;64.132;-21.820;2023-03-11T04:03:39;6.00;;;5.40;;
72373;SDS011;60349;64.132;-21.820;2023-03-11T04:06:25;7.20;;;6.47;;
72373;SDS011;60349;64.132;-21.820;2023-03-11T04:08:51;6.45;;;5.85;;
72373;SDS011;60349;64.132;-21.820;2023-03-11T04:11:18;6.78;;;6.03;;
72373;SDS011;60349;64.132;-21.820;2023-03-11T04:13:44;7.05;;;6.45;;
72373;SDS011;60349;64.132;-21.820;2023-03-11T04:16:18;7.53;;;5.63;;
72373;SDS011;60349;64.132;-21.820;2023-03-11T04:18:44;7.03;;;6.43;;
72373;SDS011;60349;64.132;-21.820;2023-03-11T04:21:10;6.68;;;6.07;;
72373;SDS011;60349;64.132;-21.820;2023-03-11T04:23:36;7.03;;;5.95;;
72373;SDS011;60349;64.132;-21.820;2023-03-11T04:26:03;7.20;;;6.60;;
72373;SDS011;60349;64.132;-21.820;2023-03-11T04:28:29;7.50;;;6.80;;
72373;SDS011;60349;64.132;-21.820;2023-03-11T04:30:55;6.75;;;6.05;;
72373;SDS011;60349;64.132;-21.820;2023-03-11T04:33:21;5.68;;;5.07;;
72373;SDS011;60349;64.132;-21.820;2023-03-11T04:35:47;5.80;;;5.15;;
72373;SDS011;60349;64.132;-21.820;2023-03-11T04:38:13;6.22;;;5.38;;
72373;SDS011;60349;64.132;-21.820;2023-03-11T04:40:40;6.70;;;6.10;;
72373;SDS011;60349;64.132;-21.820;2023-03-11T04:43:06;6.05;;;5.32;;
72373;SDS011;60349;64.132;-21.820;2023-03-11T04:45:32;7.20;;;6.15;;
72373;SDS011;60349;64.132;-21.820;2023-03-11T04:47:58;7.13;;;5.35;;
72373;SDS011;60349;64.132;-21.820;2023-03-11T04:50:24;7.53;;;5.57;;
72373;SDS011;60349;64.132;-21.820;2023-03-11T04:52:50;7.25;;;5.47;;
72373;SDS011;60349;64.132;-21.820;2023-03-11T04:55:16;6.90;;;5.70;;
72373;SDS011;60349;64.132;-21.820;2023-03-11T04:57:42;6.35;;;5.72;;
72373;SDS011;60349;64.132;-21.820;2023-03-11T05:00:09;6.32;;;5.00;;
72373;SDS011;60349;64.132;-21.820;2023-03-11T05:02:36;7.35;;;6.65;;
72373;SDS011;60349;64.132;-21.820;2023-03-11T05:05:03;7.03;;;6.32;;
72373;SDS011;60349;64.132;-21.820;2023-03-11T05:07:30;6.13;;;5.63;;
72373;SDS011;60349;64.132;-21.820;2023-03-11T05:09:56;7.05;;;6.30;;
72373;SDS011;60349;64.132;-21.820;2023-03-11T05:12:22;7.13;;;6.53;;
72373;SDS011;60349;64.132;-21.820;2023-03-11T05:14:48;7.82;;;6.85;;
72373;SDS011;60349;64.132;-21.820;2023-03-11T05:17:14;7.03;;;6.32;;
72373;SDS011;60349;64.132;-21.820;2023-03-11T05:19:42;7.25;;;6.50;;
72373;SDS011;60349;64.132;-21.820;2023-03-11T05:22:08;6.45;;;5.85;;
72373;SDS011;60349;64.132;-21.820;2023-03-11T05:24:34;7.35;;;6.57;;
72373;SDS011;60349;64.132;-21.820;2023-03-11T05:27:01;7.72;;;7.03;;
72373;SDS011;60349;64.132;-21.820;2023-03-11T05:29:27;7.28;;;6.50;;
72373;SDS011;60349;64.132;-21.820;2023-03-11T05:31:53;7.38;;;6.68;;
72373;SDS011;60349;64.132;-21.820;2023-03-11T05:34:19;6.20;;;5.60;;
72373;SDS011;60349;64.132;-21.820;2023-03-11T05:36:46;5.35;;;4.85;;
72373;SDS011;60349;64.132;-21.820;2023-03-11T05:39:12;6.18;;;5.57;;
72373;SDS011;60349;64.132;-21.820;2023-03-11T05:41:38;6.10;;;4.93;;
72373;SDS011;60349;64.132;-21.820;2023-03-11T05:44:04;6.10;;;5.50;;
72373;SDS011;60349;64.132;-21.820;2023-03-11T05:46:31;5.50;;;5.00;;
72373;SDS011;60349;64.132;-21.820;2023-03-11T05:49:00;6.30;;;5.70;;
72373;SDS011;60349;64.132;-21.820;2023-03-11T05:51:26;6.32;;;5.15;;
72373;SDS011;60349;64.132;-21.820;2023-03-11T05:53:52;5.63;;;4.97;;
72373;SDS011;60349;64.132;-21.820;2023-03-11T05:56:19;5.43;;;4.85;;
72373;SDS011;60349;64.132;-21.820;2023-03-11T05:58:45;5.10;;;4.70;;
72373;SDS011;60349;64.132;-21.820;2023-03-11T06:01:12;6.38;;;5.72;;
72373;SDS011;60349;64.132;-21.820;2023-03-11T06:03:39;6.57;;;6.05;;
72373;SDS011;60349;64.132;-21.820;2023-03-11T06:06:06;7.57;;;6.80;;
72373;SDS011;60349;64.132;-21.820;2023-03-11T06:08:33;7.93;;;5.70;;
72373;SDS011;60349;64.132;-21.820;2023-03-11T06:11:05;6.22;;;5.63;;
72373;SDS011;60349;64.132;-21.820;2023-03-11T06:13:31;6.60;;;6.00;;
72373;SDS011;60349;64.132;-21.820;2023-03-11T06:15:58;6.93;;;5.55;;
72373;SDS011;60349;64.132;-21.820;2023-03-11T06:18:24;8.40;;;5.88;;
72373;SDS011;60349;64.132;-21.820;2023-03-11T06:20:53;5.70;;;5.20;;
72373;SDS011;60349;64.132;-21.820;2023-03-11T06:23:22;9.15;;;5.72;;
72373;SDS011;60349;64.132;-21.820;2023-03-11T06:25:56;6.75;;;6.13;;
72373;SDS011;60349;64.132;-21.820;2023-03-11T06:28:22;6.78;;;5.72;;
72373;SDS011;60349;64.132;-21.820;2023-03-11T06:30:48;6.22;;;5.63;;
72373;SDS011;60349;64.132;-21.820;2023-03-11T06:33:14;6.13;;;5.53;;
72373;SDS011;60349;64.132;-21.820;2023-03-11T06:35:40;5.40;;;4.90;;
72373;SDS011;60349;64.132;-21.820;2023-03-11T06:38:06;5.18;;;4.68;;
72373;SDS011;60349;64.132;-21.820;2023-03-11T06:40:32;5.55;;;5.05;;
72373;SDS011;60349;64.132;-21.820;2023-03-11T06:42:58;6.10;;;5.50;;
72373;SDS011;60349;64.132;-21.820;2023-03-11T06:45:25;5.78;;;5.28;;
72373;SDS011;60349;64.132;-21.820;2023-03-11T06:47:51;5.57;;;5.05;;
72373;SDS011;60349;64.132;-21.820;2023-03-11T06:50:17;6.10;;;5.10;;
72373;SDS011;60349;64.132;-21.820;2023-03-11T06:52:43;6.60;;;5.03;;
72373;SDS011;60349;64.132;-21.820;2023-03-11T06:55:09;5.32;;;4.82;;
72373;SDS011;60349;64.132;-21.820;2023-03-11T06:57:35;6.63;;;5.93;;
72373;SDS011;60349;64.132;-21.820;2023-03-11T07:00:02;6.43;;;5.82;;
72373;SDS011;60349;64.132;-21.820;2023-03-11T07:02:31;6.18;;;5.68;;
72373;SDS011;60349;64.132;-21.820;2023-03-11T07:04:57;6.38;;;5.38;;
72373;SDS011;60349;64.132;-21.820;2023-03-11T07:07:23;6.28;;;5.68;;
72373;SDS011;60349;64.132;-21.820;2023-03-11T07:09:49;6.85;;;6.20;;
72373;SDS011;60349;64.132;-21.820;2023-03-11T07:12:15;6.72;;;6.10;;
72373;SDS011;60349;64.132;-21.820;2023-03-11T07:14:41;8.82;;;6.53;;
72373;SDS011;60349;64.132;-21.820;2023-03-11T07:17:08;7.07;;;6.43;;
72373;SDS011;60349;64.132;-21.820;2023-03-11T07:19:34;7.32;;;5.95;;
72373;SDS011;60349;64.132;-21.820;2023-03-11T07:22:00;8.00;;;5.80;;
72373;SDS011;60349;64.132;-21.820;2023-03-11T07:24:26;9.13;;;6.78;;
72373;SDS011;60349;64.132;-21.820;2023-03-11T07:26:52;8.38;;;6.47;;
72373;SDS011;60349;64.132;-21.820;2023-03-11T07:29:18;6.32;;;5.72;;
72373;SDS011;60349;64.132;-21.820;2023-03-11T07:31:44;5.72;;;5.22;;
72373;SDS011;60349;64.132;-21.820;2023-03-11T07:34:11;7.97;;;6.03;;
72373;SDS011;60349;64.132;-21.820;2023-03-11T07:36:40;6.60;;;5.95;;
72373;SDS011;60349;64.132;-21.820;2023-03-11T07:39:07;6.85;;;6.15;;
72373;SDS011;60349;64.132;-21.820;2023-03-11T07:41:34;7.38;;;6.18;;
72373;SDS011;60349;64.132;-21.820;2023-03-11T07:44:01;8.68;;;7.07;;
72373;SDS011;60349;64.132;-21.820;2023-03-11T07:46:27;8.68;;;6.25;;
72373;SDS011;60349;64.132;-21.820;2023-03-11T07:48:54;9.95;;;5.90;;
72373;SDS011;60349;64.132;-21.820;2023-03-11T07:51:21;9.43;;;6.03;;
72373;SDS011;60349;64.132;-21.820;2023-03-11T07:53:48;8.43;;;5.00;;
72373;SDS011;60349;64.132;-21.820;2023-03-11T07:56:14;8.60;;;6.55;;
72373;SDS011;60349;64.132;-21.820;2023-03-11T07:58:42;7.22;;;5.97;;
72373;SDS011;60349;64.132;-21.820;2023-03-11T08:01:10;5.78;;;5.28;;
72373;SDS011;60349;64.132;-21.820;2023-03-11T08:03:37;8.32;;;6.47;;
72373;SDS011;60349;64.132;-21.820;2023-03-11T08:06:13;9.88;;;6.30;;
72373;SDS011;60349;64.132;-21.820;2023-03-11T08:08:39;10.43;;;6.70;;
72373;SDS011;60349;64.132;-21.820;2023-03-11T08:11:06;8.07;;;6.47;;
72373;SDS011;60349;64.132;-21.820;2023-03-11T08:13:32;9.07;;;7.28;;
72373;SDS011;60349;64.132;-21.820;2023-03-11T08:15:58;9.88;;;7.10;;
72373;SDS011;60349;64.132;-21.820;2023-03-11T08:18:24;9.60;;;5.93;;
72373;SDS011;60349;64.132;-21.820;2023-03-11T08:20:50;11.50;;;6.32;;
72373;SDS011;60349;64.132;-21.820;2023-03-11T08:23:17;8.45;;;6.40;;
72373;SDS011;60349;64.132;-21.820;2023-03-11T08:25:43;7.80;;;5.72;;
72373;SDS011;60349;64.132;-21.820;2023-03-11T08:28:09;6.63;;;6.03;;
72373;SDS011;60349;64.132;-21.820;2023-03-11T08:30:35;8.73;;;6.55;;
72373;SDS011;60349;64.132;-21.820;2023-03-11T08:33:02;10.18;;;7.60;;
72373;SDS011;60349;64.132;-21.820;2023-03-11T08:35:29;7.43;;;6.43;;
72373;SDS011;60349;64.132;-21.820;2023-03-11T08:37:55;7.25;;;6.53;;
72373;SDS011;60349;64.132;-21.820;2023-03-11T08:40:21;9.68;;;6.97;;
72373;SDS011;60349;64.132;-21.820;2023-03-11T08:42:47;7.38;;;6.55;;
72373;SDS011;60349;64.132;-21.820;2023-03-11T08:45:13;8.05;;;7.25;;
72373;SDS011;60349;64.132;-21.820;2023-03-11T08:47:39;7.38;;;6.22;;
72373;SDS011;60349;64.132;-21.820;2023-03-11T08:50:10;8.63;;;6.43;;
72373;SDS011;60349;64.132;-21.820;2023-03-11T08:52:37;7.38;;;6.18;;
72373;SDS011;60349;64.132;-21.820;2023-03-11T08:55:03;7.78;;;6.22;;
72373;SDS011;60349;64.132;-21.820;2023-03-11T08:57:30;7.13;;;6.15;;
72373;SDS011;60349;64.132;-21.820;2023-03-11T08:59:56;7.80;;;7.03;;
72373;SDS011;60349;64.132;-21.820;2023-03-11T09:02:23;10.15;;;6.88;;
72373;SDS011;60349;64.132;-21.820;2023-03-11T09:04:49;10.40;;;7.20;;
72373;SDS011;60349;64.132;-21.820;2023-03-11T09:07:15;10.20;;;6.10;;
72373;SDS011;60349;64.132;-21.820;2023-03-11T09:09:41;7.20;;;6.50;;
72373;SDS011;60349;64.132;-21.820;2023-03-11T09:12:08;11.20;;;6.20;;
72373;SDS011;60349;64.132;-21.820;2023-03-11T09:14:38;11.05;;;7.30;;
72373;SDS011;60349;64.132;-21.820;2023-03-11T09:17:04;9.57;;;6.55;;
72373;SDS011;60349;64.132;-21.820;2023-03-11T09:19:30;10.20;;;6.20;;
72373;SDS011;60349;64.132;-21.820;2023-03-11T09:21:58;8.52;;;6.88;;
72373;SDS011;60349;64.132;-21.820;2023-03-11T09:24:24;9.13;;;7.13;;
72373;SDS011;60349;64.132;-21.820;2023-03-11T09:26:50;7.40;;;6.05;;
72373;SDS011;60349;64.132;-21.820;2023-03-11T09:29:17;7.20;;;6.50;;
72373;SDS011;60349;64.132;-21.820;2023-03-11T09:31:43;8.60;;;6.38;;
72373;SDS011;60349;64.132;-21.820;2023-03-11T09:34:10;10.98;;;7.00;;
72373;SDS011;60349;64.132;-21.820;2023-03-11T09:36:36;9.10;;;6.25;;
72373;SDS011;60349;64.132;-21.820;2023-03-11T09:39:02;7.45;;;6.63;;
72373;SDS011;60349;64.132;-21.820;2023-03-11T09:41:52;8.13;;;6.57;;
72373;SDS011;60349;64.132;-21.820;2023-03-11T09:44:17;10.18;;;7.68;;
72373;SDS011;60349;64.132;-21.820;2023-03-11T09:54:36;7.07;;;6.38;;
72373;SDS011;60349;64.132;-21.820;2023-03-11T09:57:02;7.47;;;5.93;;
72373;SDS011;60349;64.132;-21.820;2023-03-11T09:59:30;7.47;;;6.65;;
72373;SDS011;60349;64.132;-21.820;2023-03-11T10:01:57;8.48;;;6.57;;
72373;SDS011;60349;64.132;-21.820;2023-03-11T10:04:29;7.20;;;6.50;;
72373;SDS011;60349;64.132;-21.820;2023-03-11T10:06:56;7.40;;;6.47;;
72373;SDS011;60349;64.132;-21.820;2023-03-11T10:15:30;6.15;;;5.60;;
72373;SDS011;60349;64.132;-21.820;2023-03-11T10:25:27;7.10;;;6.43;;
72373;SDS011;60349;64.132;-21.820;2023-03-11T10:30:28;6.53;;;5.53;;
72373;SDS011;60349;64.132;-21.820;2023-03-11T10:35:42;7.00;;;6.35;;
72373;SDS011;60349;64.132;-21.820;2023-03-11T10:40:40;6.43;;;5.43;;
72373;SDS011;60349;64.132;-21.820;2023-03-11T10:43:10;5.70;;;5.20;;
72373;SDS011;60349;64.132;-21.820;2023-03-11T10:45:39;6.05;;;5.50;;
72373;SDS011;60349;64.132;-21.820;2023-03-11T10:48:15;6.57;;;5.97;;
72373;SDS011;60349;64.132;-21.820;2023-03-11T10:50:46;6.18;;;5.15;;
72373;SDS011;60349;64.132;-21.820;2023-03-11T10:53:15;6.68;;;5.25;;
72373;SDS011;60349;64.132;-21.820;2023-03-11T10:55:46;5.22;;;4.70;;
72373;SDS011;60349;64.132;-21.820;2023-03-11T10:58:17;4.95;;;4.55;;
72373;SDS011;60349;64.132;-21.820;2023-03-11T11:00:43;6.57;;;4.95;;
72373;SDS011;60349;64.132;-21.820;2023-03-11T11:03:15;6.25;;;5.05;;
72373;SDS011;60349;64.132;-21.820;2023-03-11T11:05:44;5.27;;;4.77;;
72373;SDS011;60349;64.132;-21.820;2023-03-11T11:08:21;4.85;;;4.45;;
72373;SDS011;60349;64.132;-21.820;2023-03-11T11:11:18;5.70;;;5.20;;
72373;SDS011;60349;64.132;-21.820;2023-03-11T11:13:34;7.40;;;4.78;;
72373;SDS011;60349;64.132;-21.820;2023-03-11T11:21:37;5.18;;;4.57;;
72373;SDS011;60349;64.132;-21.820;2023-03-11T11:26:31;5.53;;;4.22;;
72373;SDS011;60349;64.132;-21.820;2023-03-11T11:29:05;5.18;;;4.50;;
72373;SDS011;60349;64.132;-21.820;2023-03-11T11:31:31;4.88;;;4.38;;
72373;SDS011;60349;64.132;-21.820;2023-03-11T11:33:57;5.15;;;4.65;;
72373;SDS011;60349;64.132;-21.820;2023-03-11T11:36:27;4.95;;;3.75;;
72373;SDS011;60349;64.132;-21.820;2023-03-11T11:38:54;4.35;;;3.95;;
72373;SDS011;60349;64.132;-21.820;2023-03-11T11:41:22;6.82;;;4.65;;
72373;SDS011;60349;64.132;-21.820;2023-03-11T11:46:26;5.05;;;4.55;;
72373;SDS011;60349;64.132;-21.820;2023-03-11T11:51:40;4.40;;;3.95;;
72373;SDS011;60349;64.132;-21.820;2023-03-11T11:54:17;4.97;;;4.37;;
72373;SDS011;60349;64.132;-21.820;2023-03-11T11:56:48;5.05;;;4.20;;
72373;SDS011;60349;64.132;-21.820;2023-03-11T11:59:18;7.20;;;3.47;;
72373;SDS011;60349;64.132;-21.820;2023-03-11T12:07:03;6.55;;;2.97;;
72373;SDS011;60349;64.132;-21.820;2023-03-11T12:14:59;2.70;;;1.95;;
72373;SDS011;60349;64.132;-21.820;2023-03-11T12:17:26;4.07;;;2.05;;
72373;SDS011;60349;64.132;-21.820;2023-03-11T12:20:02;4.50;;;1.52;;
72373;SDS011;60349;64.132;-21.820;2023-03-11T12:30:28;3.35;;;2.15;;
72373;SDS011;60349;64.132;-21.820;2023-03-11T12:32:56;3.33;;;2.00;;
72373;SDS011;60349;64.132;-21.820;2023-03-11T12:35:25;3.63;;;2.55;;
72373;SDS011;60349;64.132;-21.820;2023-03-11T12:37:56;3.28;;;1.88;;
72373;SDS011;60349;64.132;-21.820;2023-03-11T12:45:56;3.92;;;3.35;;
72373;SDS011;60349;64.132;-21.820;2023-03-11T12:48:24;5.28;;;2.70;;
72373;SDS011;60349;64.132;-21.820;2023-03-11T12:50:56;4.25;;;2.53;;
72373;SDS011;60349;64.132;-21.820;2023-03-11T12:58:55;2.00;;;0.60;;
72373;SDS011;60349;64.132;-21.820;2023-03-11T13:04:30;3.45;;;0.38;;
72373;SDS011;60349;64.132;-21.820;2023-03-11T13:09:31;4.55;;;0.30;;
72373;SDS011;60349;64.132;-21.820;2023-03-11T13:11:57;15.18;;;0.40;;
72373;SDS011;60349;64.132;-21.820;2023-03-11T13:14:26;4.28;;;0.50;;
72373;SDS011;60349;64.132;-21.820;2023-03-11T13:16:53;3.80;;;0.30;;
72373;SDS011;60349;64.132;-21.820;2023-03-11T13:19:30;1.95;;;0.10;;
72373;SDS011;60349;64.132;-21.820;2023-03-11T13:21:58;3.38;;;0.10;;
72373;SDS011;60349;64.132;-21.820;2023-03-11T13:34:47;0.88;;;0.25;;
72373;SDS011;60349;64.132;-21.820;2023-03-11T13:40:16;3.05;;;0.00;;
72373;SDS011;60349;64.132;-21.820;2023-03-11T13:42:48;0.50;;;0.00;;
72373;SDS011;60349;64.132;-21.820;2023-03-11T13:45:34;5.68;;;0.20;;
72373;SDS011;60349;64.132;-21.820;2023-03-11T13:48:14;1.55;;;0.00;;
72373;SDS011;60349;64.132;-21.820;2023-03-11T13:50:46;1.35;;;0.00;;
72373;SDS011;60349;64.132;-21.820;2023-03-11T13:53:18;1.40;;;0.00;;
72373;SDS011;60349;64.132;-21.820;2023-03-11T13:55:45;0.30;;;0.00;;
72373;SDS011;60349;64.132;-21.820;2023-03-11T13:58:13;0.32;;;0.00;;
72373;SDS011;60349;64.132;-21.820;2023-03-11T14:00:45;0.43;;;0.00;;
72373;SDS011;60349;64.132;-21.820;2023-03-11T14:03:11;3.85;;;0.00;;
72373;SDS011;60349;64.132;-21.820;2023-03-11T14:05:39;1.20;;;0.00;;
72373;SDS011;60349;64.132;-21.820;2023-03-11T14:08:11;0.93;;;0.00;;
72373;SDS011;60349;64.132;-21.820;2023-03-11T14:10:38;0.22;;;0.00;;
72373;SDS011;60349;64.132;-21.820;2023-03-11T14:13:05;2.63;;;0.00;;
72373;SDS011;60349;64.132;-21.820;2023-03-11T14:15:36;0.77;;;0.00;;
72373;SDS011;60349;64.132;-21.820;2023-03-11T14:20:49;2.60;;;0.00;;
72373;SDS011;60349;64.132;-21.820;2023-03-11T14:23:16;2.47;;;0.00;;
72373;SDS011;60349;64.132;-21.820;2023-03-11T14:25:43;1.33;;;0.10;;
72373;SDS011;60349;64.132;-21.820;2023-03-11T14:28:16;1.33;;;0.00;;
72373;SDS011;60349;64.132;-21.820;2023-03-11T14:30:53;4.18;;;0.00;;
72373;SDS011;60349;64.132;-21.820;2023-03-11T14:33:21;1.35;;;0.00;;
72373;SDS011;60349;64.132;-21.820;2023-03-11T14:35:51;0.40;;;0.10;;
72373;SDS011;60349;64.132;-21.820;2023-03-11T14:38:19;0.73;;;0.00;;
72373;SDS011;60349;64.132;-21.820;2023-03-11T14:40:45;1.88;;;0.00;;
72373;SDS011;60349;64.132;-21.820;2023-03-11T14:43:14;0.50;;;0.00;;
72373;SDS011;60349;64.132;-21.820;2023-03-11T14:45:41;0.50;;;0.00;;
72373;SDS011;60349;64.132;-21.820;2023-03-11T14:48:53;0.75;;;0.00;;
72373;SDS011;60349;64.132;-21.820;2023-03-11T14:50:55;0.45;;;0.00;;
72373;SDS011;60349;64.132;-21.820;2023-03-11T14:53:41;5.15;;;0.00;;
72373;SDS011;60349;64.132;-21.820;2023-03-11T14:56:12;1.25;;;0.00;;
72373;SDS011;60349;64.132;-21.820;2023-03-11T14:58:43;1.27;;;0.00;;
72373;SDS011;60349;64.132;-21.820;2023-03-11T15:03:47;0.40;;;0.00;;
72373;SDS011;60349;64.132;-21.820;2023-03-11T15:06:15;0.38;;;0.00;;
72373;SDS011;60349;64.132;-21.820;2023-03-11T15:08:49;1.45;;;0.00;;
72373;SDS011;60349;64.132;-21.820;2023-03-11T15:11:21;0.28;;;0.00;;
72373;SDS011;60349;64.132;-21.820;2023-03-11T15:13:49;0.70;;;0.00;;
72373;SDS011;60349;64.132;-21.820;2023-03-11T15:16:32;1.90;;;0.00;;
72373;SDS011;60349;64.132;-21.820;2023-03-11T15:19:19;0.57;;;0.00;;
72373;SDS011;60349;64.132;-21.820;2023-03-11T15:21:48;1.55;;;0.00;;
72373;SDS011;60349;64.132;-21.820;2023-03-11T15:24:21;0.85;;;0.00;;
72373;SDS011;60349;64.132;-21.820;2023-03-11T15:27:00;1.05;;;0.00;;
72373;SDS011;60349;64.132;-21.820;2023-03-11T15:29:27;4.07;;;0.35;;
72373;SDS011;60349;64.132;-21.820;2023-03-11T15:31:54;1.20;;;0.00;;
72373;SDS011;60349;64.132;-21.820;2023-03-11T15:34:25;2.05;;;0.55;;
72373;SDS011;60349;64.132;-21.820;2023-03-11T15:41:58;0.55;;;0.00;;
72373;SDS011;60349;64.132;-21.820;2023-03-11T15:47:23;0.75;;;0.00;;
72373;SDS011;60349;64.132;-21.820;2023-03-11T15:49:50;0.30;;;0.00;;
72373;SDS011;60349;64.132;-21.820;2023-03-11T15:52:16;0.68;;;0.00;;
72373;SDS011;60349;64.132;-21.820;2023-03-11T15:54:43;1.58;;;0.30;;
72373;SDS011;60349;64.132;-21.820;2023-03-11T15:57:13;1.20;;;0.00;;
72373;SDS011;60349;64.132;-21.820;2023-03-11T15:59:41;1.05;;;0.00;;
72373;SDS011;60349;64.132;-21.820;2023-03-11T16:02:19;1.23;;;0.00;;
72373;SDS011;60349;64.132;-21.820;2023-03-11T16:04:46;5.10;;;0.00;;
72373;SDS011;60349;64.132;-21.820;2023-03-11T16:07:12;0.88;;;0.00;;
72373;SDS011;60349;64.132;-21.820;2023-03-11T16:09:38;0.55;;;0.00;;
72373;SDS011;60349;64.132;-21.820;2023-03-11T16:12:08;0.50;;;0.00;;
72373;SDS011;60349;64.132;-21.820;2023-03-11T16:14:38;2.05;;;0.00;;